sensor_id;sensor_type;location;lat;lon;timestamp;temperature;humidity
152;DHT22;68;48.792;9.164;2022-11-20T00:00:19;6.40;64.60
152;DHT22;68;48.792;9.164;2022-11-20T00:02:46;6.50;62.60
152;DHT22;68;48.792;9.164;2022-11-20T00:05:13;6.60;64.50
152;DHT22;68;48.792;9.164;2022-11-20T00:07:39;6.50;64.10
152;DHT22;68;48.792;9.164;2022-11-20T00:10:07;6.60;63.80
152;DHT22;68;48.792;9.164;2022-11-20T00:12:34;6.70;64.10
152;DHT22;68;48.792;9.164;2022-11-20T00:15:01;6.80;69.60
152;DHT22;68;48.792;9.164;2022-11-20T00:17:29;7.00;70.10
152;DHT22;68;48.792;9.164;2022-11-20T00:19:55;6.90;73.50
152;DHT22;68;48.792;9.164;2022-11-20T00:22:22;6.80;74.30
152;DHT22;68;48.792;9.164;2022-11-20T00:24:49;6.70;71.90
152;DHT22;68;48.792;9.164;2022-11-20T00:27:16;6.70;71.40
152;DHT22;68;48.792;9.164;2022-11-20T00:29:42;6.80;72.90
152;DHT22;68;48.792;9.164;2022-11-20T00:32:09;6.80;74.10
152;DHT22;68;48.792;9.164;2022-11-20T00:34:37;6.80;75.00
152;DHT22;68;48.792;9.164;2022-11-20T00:37:04;6.90;78.50
152;DHT22;68;48.792;9.164;2022-11-20T00:39:31;6.90;78.00
152;DHT22;68;48.792;9.164;2022-11-20T00:41:57;6.90;79.20
152;DHT22;68;48.792;9.164;2022-11-20T00:44:24;7.00;82.50
152;DHT22;68;48.792;9.164;2022-11-20T00:46:51;7.10;83.80
152;DHT22;68;48.792;9.164;2022-11-20T00:49:17;7.10;85.20
152;DHT22;68;48.792;9.164;2022-11-20T00:51:46;7.20;87.40
152;DHT22;68;48.792;9.164;2022-11-20T00:54:12;7.30;90.60
152;DHT22;68;48.792;9.164;2022-11-20T00:56:39;7.40;92.50
152;DHT22;68;48.792;9.164;2022-11-20T00:59:08;7.30;93.00
152;DHT22;68;48.792;9.164;2022-11-20T01:01:36;7.20;92.70
152;DHT22;68;48.792;9.164;2022-11-20T01:04:03;7.20;92.30
152;DHT22;68;48.792;9.164;2022-11-20T01:06:32;7.20;92.80
152;DHT22;68;48.792;9.164;2022-11-20T01:09:03;7.00;92.70
152;DHT22;68;48.792;9.164;2022-11-20T01:11:31;7.20;91.50
152;DHT22;68;48.792;9.164;2022-11-20T01:13:59;7.30;92.40
152;DHT22;68;48.792;9.164;2022-11-20T01:16:31;7.20;93.30
152;DHT22;68;48.792;9.164;2022-11-20T01:19:00;7.20;92.30
152;DHT22;68;48.792;9.164;2022-11-20T01:21:28;6.90;92.20
152;DHT22;68;48.792;9.164;2022-11-20T01:23:56;6.90;90.10
152;DHT22;68;48.792;9.164;2022-11-20T01:26:26;6.80;89.40
152;DHT22;68;48.792;9.164;2022-11-20T01:28:54;6.60;89.40
152;DHT22;68;48.792;9.164;2022-11-20T01:31:23;6.50;87.10
152;DHT22;68;48.792;9.164;2022-11-20T01:33:51;6.20;87.10
152;DHT22;68;48.792;9.164;2022-11-20T01:36:19;6.30;84.70
152;DHT22;68;48.792;9.164;2022-11-20T01:38:47;6.30;83.00
152;DHT22;68;48.792;9.164;2022-11-20T01:41:15;6.20;81.90
152;DHT22;68;48.792;9.164;2022-11-20T01:43:57;6.10;80.40
152;DHT22;68;48.792;9.164;2022-11-20T01:46:24;5.90;77.20
152;DHT22;68;48.792;9.164;2022-11-20T01:48:54;5.70;73.70
152;DHT22;68;48.792;9.164;2022-11-20T01:51:26;5.80;70.10
152;DHT22;68;48.792;9.164;2022-11-20T01:53:55;5.80;68.80
152;DHT22;68;48.792;9.164;2022-11-20T01:56:24;5.70;67.00
152;DHT22;68;48.792;9.164;2022-11-20T01:58:54;5.90;65.70
152;DHT22;68;48.792;9.164;2022-11-20T02:01:24;5.90;65.20
152;DHT22;68;48.792;9.164;2022-11-20T02:03:51;6.10;65.70
152;DHT22;68;48.792;9.164;2022-11-20T02:06:23;6.10;69.10
152;DHT22;68;48.792;9.164;2022-11-20T02:08:51;6.20;70.50
152;DHT22;68;48.792;9.164;2022-11-20T02:11:18;6.40;73.40
152;DHT22;68;48.792;9.164;2022-11-20T02:13:45;6.50;78.60
152;DHT22;68;48.792;9.164;2022-11-20T02:16:18;6.40;84.20
152;DHT22;68;48.792;9.164;2022-11-20T02:18:47;6.20;84.60
152;DHT22;68;48.792;9.164;2022-11-20T02:21:24;6.20;81.40
152;DHT22;68;48.792;9.164;2022-11-20T02:24:04;6.10;79.20
152;DHT22;68;48.792;9.164;2022-11-20T02:26:35;6.00;79.50
152;DHT22;68;48.792;9.164;2022-11-20T02:29:03;6.00;78.20
152;DHT22;68;48.792;9.164;2022-11-20T02:31:36;6.10;79.10
152;DHT22;68;48.792;9.164;2022-11-20T02:34:04;6.20;78.60
152;DHT22;68;48.792;9.164;2022-11-20T02:36:32;6.00;82.70
152;DHT22;68;48.792;9.164;2022-11-20T02:39:01;5.90;80.60
152;DHT22;68;48.792;9.164;2022-11-20T02:41:33;5.80;77.90
152;DHT22;68;48.792;9.164;2022-11-20T02:44:00;6.00;75.00
152;DHT22;68;48.792;9.164;2022-11-20T02:46:27;6.10;74.10
152;DHT22;68;48.792;9.164;2022-11-20T02:48:54;6.30;76.30
152;DHT22;68;48.792;9.164;2022-11-20T02:51:21;6.40;77.60
152;DHT22;68;48.792;9.164;2022-11-20T02:53:48;6.50;80.10
152;DHT22;68;48.792;9.164;2022-11-20T02:56:17;6.70;84.20
152;DHT22;68;48.792;9.164;2022-11-20T02:58:43;6.60;84.60
152;DHT22;68;48.792;9.164;2022-11-20T03:01:10;6.70;85.10
152;DHT22;68;48.792;9.164;2022-11-20T03:03:37;6.70;88.90
152;DHT22;68;48.792;9.164;2022-11-20T03:06:05;6.90;90.20
152;DHT22;68;48.792;9.164;2022-11-20T03:08:32;6.90;92.10
152;DHT22;68;48.792;9.164;2022-11-20T03:11:03;6.70;92.60
152;DHT22;68;48.792;9.164;2022-11-20T03:13:31;6.60;91.60
152;DHT22;68;48.792;9.164;2022-11-20T03:16:04;6.50;92.80
152;DHT22;68;48.792;9.164;2022-11-20T03:18:31;6.60;92.50
152;DHT22;68;48.792;9.164;2022-11-20T03:20:57;6.70;94.00
152;DHT22;68;48.792;9.164;2022-11-20T03:23:25;6.60;93.40
152;DHT22;68;48.792;9.164;2022-11-20T03:25:52;6.70;94.40
152;DHT22;68;48.792;9.164;2022-11-20T03:28:18;6.60;94.00
152;DHT22;68;48.792;9.164;2022-11-20T03:30:47;6.50;93.70
152;DHT22;68;48.792;9.164;2022-11-20T03:33:13;6.60;94.10
152;DHT22;68;48.792;9.164;2022-11-20T03:35:40;6.70;94.40
152;DHT22;68;48.792;9.164;2022-11-20T03:38:07;6.50;94.50
152;DHT22;68;48.792;9.164;2022-11-20T03:40:34;6.40;94.50
152;DHT22;68;48.792;9.164;2022-11-20T03:43:01;6.20;91.30
152;DHT22;68;48.792;9.164;2022-11-20T03:45:28;6.20;91.20
152;DHT22;68;48.792;9.164;2022-11-20T03:47:56;6.20;92.00
152;DHT22;68;48.792;9.164;2022-11-20T03:50:23;6.00;91.30
152;DHT22;68;48.792;9.164;2022-11-20T03:52:49;5.90;88.30
152;DHT22;68;48.792;9.164;2022-11-20T03:55:16;6.00;87.60
152;DHT22;68;48.792;9.164;2022-11-20T03:57:43;6.00;85.50
152;DHT22;68;48.792;9.164;2022-11-20T04:00:11;5.90;84.30
152;DHT22;68;48.792;9.164;2022-11-20T04:02:38;6.00;83.20
152;DHT22;68;48.792;9.164;2022-11-20T04:05:06;6.00;84.10
152;DHT22;68;48.792;9.164;2022-11-20T04:07:34;5.90;84.80
152;DHT22;68;48.792;9.164;2022-11-20T04:10:01;5.80;82.80
152;DHT22;68;48.792;9.164;2022-11-20T04:12:27;5.80;81.00
152;DHT22;68;48.792;9.164;2022-11-20T04:14:57;5.80;82.50
152;DHT22;68;48.792;9.164;2022-11-20T04:17:24;5.80;82.70
152;DHT22;68;48.792;9.164;2022-11-20T04:19:51;5.90;84.90
152;DHT22;68;48.792;9.164;2022-11-20T04:22:19;5.90;82.50
152;DHT22;68;48.792;9.164;2022-11-20T04:24:46;6.10;82.80
152;DHT22;68;48.792;9.164;2022-11-20T04:27:13;6.20;84.90
152;DHT22;68;48.792;9.164;2022-11-20T04:29:39;6.00;88.50
152;DHT22;68;48.792;9.164;2022-11-20T04:32:06;6.00;89.10
152;DHT22;68;48.792;9.164;2022-11-20T04:34:33;5.90;89.40
152;DHT22;68;48.792;9.164;2022-11-20T04:37:00;6.00;89.50
152;DHT22;68;48.792;9.164;2022-11-20T04:39:29;6.00;90.20
152;DHT22;68;48.792;9.164;2022-11-20T04:41:55;6.00;87.50
152;DHT22;68;48.792;9.164;2022-11-20T04:44:36;5.90;88.40
152;DHT22;68;48.792;9.164;2022-11-20T04:47:03;5.80;86.60
152;DHT22;68;48.792;9.164;2022-11-20T04:49:30;6.10;85.90
152;DHT22;68;48.792;9.164;2022-11-20T04:51:57;6.00;87.30
152;DHT22;68;48.792;9.164;2022-11-20T04:54:24;6.00;87.00
152;DHT22;68;48.792;9.164;2022-11-20T04:56:52;6.10;88.80
152;DHT22;68;48.792;9.164;2022-11-20T04:59:18;6.30;90.70
152;DHT22;68;48.792;9.164;2022-11-20T05:01:45;6.50;92.80
152;DHT22;68;48.792;9.164;2022-11-20T05:04:12;6.50;94.20
152;DHT22;68;48.792;9.164;2022-11-20T05:06:39;6.40;95.00
152;DHT22;68;48.792;9.164;2022-11-20T05:09:06;6.40;95.40
152;DHT22;68;48.792;9.164;2022-11-20T05:11:32;6.50;94.70
152;DHT22;68;48.792;9.164;2022-11-20T05:14:00;6.50;95.30
152;DHT22;68;48.792;9.164;2022-11-20T05:16:27;6.70;95.60
152;DHT22;68;48.792;9.164;2022-11-20T05:18:54;6.70;96.50
152;DHT22;68;48.792;9.164;2022-11-20T05:21:22;6.60;97.10
152;DHT22;68;48.792;9.164;2022-11-20T05:23:48;6.60;97.10
152;DHT22;68;48.792;9.164;2022-11-20T05:26:17;6.60;97.00
152;DHT22;68;48.792;9.164;2022-11-20T05:28:44;6.50;96.80
152;DHT22;68;48.792;9.164;2022-11-20T05:31:15;6.60;96.50
152;DHT22;68;48.792;9.164;2022-11-20T05:33:44;6.60;95.90
152;DHT22;68;48.792;9.164;2022-11-20T05:36:12;6.60;95.50
152;DHT22;68;48.792;9.164;2022-11-20T05:38:39;6.50;95.80
152;DHT22;68;48.792;9.164;2022-11-20T05:41:07;6.40;94.70
152;DHT22;68;48.792;9.164;2022-11-20T05:43:35;6.50;94.80
152;DHT22;68;48.792;9.164;2022-11-20T05:46:03;6.40;94.60
152;DHT22;68;48.792;9.164;2022-11-20T05:48:32;6.40;92.50
152;DHT22;68;48.792;9.164;2022-11-20T05:50:59;6.30;91.10
152;DHT22;68;48.792;9.164;2022-11-20T05:53:28;6.40;90.20
152;DHT22;68;48.792;9.164;2022-11-20T05:55:58;6.20;91.70
152;DHT22;68;48.792;9.164;2022-11-20T05:58:25;6.20;91.20
152;DHT22;68;48.792;9.164;2022-11-20T06:00:52;6.30;89.50
152;DHT22;68;48.792;9.164;2022-11-20T06:03:19;6.50;90.80
152;DHT22;68;48.792;9.164;2022-11-20T06:05:47;6.60;93.30
152;DHT22;68;48.792;9.164;2022-11-20T06:08:14;6.70;94.30
152;DHT22;68;48.792;9.164;2022-11-20T06:10:41;6.60;95.90
152;DHT22;68;48.792;9.164;2022-11-20T06:13:07;6.60;95.50
152;DHT22;68;48.792;9.164;2022-11-20T06:15:34;6.60;95.00
152;DHT22;68;48.792;9.164;2022-11-20T06:18:01;6.70;95.60
152;DHT22;68;48.792;9.164;2022-11-20T06:20:27;6.70;95.80
152;DHT22;68;48.792;9.164;2022-11-20T06:22:56;6.70;96.40
152;DHT22;68;48.792;9.164;2022-11-20T06:25:22;6.60;96.90
152;DHT22;68;48.792;9.164;2022-11-20T06:27:49;6.60;97.00
152;DHT22;68;48.792;9.164;2022-11-20T06:30:16;6.70;96.80
152;DHT22;68;48.792;9.164;2022-11-20T06:32:43;6.70;96.80
152;DHT22;68;48.792;9.164;2022-11-20T06:35:10;6.70;96.60
152;DHT22;68;48.792;9.164;2022-11-20T06:37:36;6.70;96.40
152;DHT22;68;48.792;9.164;2022-11-20T06:40:06;6.50;94.90
152;DHT22;68;48.792;9.164;2022-11-20T06:42:33;6.50;94.90
152;DHT22;68;48.792;9.164;2022-11-20T06:45:00;6.40;94.80
152;DHT22;68;48.792;9.164;2022-11-20T06:47:26;6.50;93.80
152;DHT22;68;48.792;9.164;2022-11-20T06:49:53;6.50;94.70
152;DHT22;68;48.792;9.164;2022-11-20T06:52:20;6.50;96.00
152;DHT22;68;48.792;9.164;2022-11-20T06:54:47;6.40;96.10
152;DHT22;68;48.792;9.164;2022-11-20T06:57:15;6.50;95.60
152;DHT22;68;48.792;9.164;2022-11-20T06:59:41;6.60;95.60
152;DHT22;68;48.792;9.164;2022-11-20T07:02:09;6.50;96.40
152;DHT22;68;48.792;9.164;2022-11-20T07:04:37;6.40;96.60
152;DHT22;68;48.792;9.164;2022-11-20T07:07:04;6.30;94.60
152;DHT22;68;48.792;9.164;2022-11-20T07:09:31;6.20;93.30
152;DHT22;68;48.792;9.164;2022-11-20T07:11:58;6.20;94.00
152;DHT22;68;48.792;9.164;2022-11-20T07:14:27;6.30;93.20
152;DHT22;68;48.792;9.164;2022-11-20T07:16:54;6.40;94.10
152;DHT22;68;48.792;9.164;2022-11-20T07:19:21;6.40;94.40
152;DHT22;68;48.792;9.164;2022-11-20T07:21:47;6.50;94.30
152;DHT22;68;48.792;9.164;2022-11-20T07:24:14;6.50;95.90
152;DHT22;68;48.792;9.164;2022-11-20T07:26:41;6.60;96.00
152;DHT22;68;48.792;9.164;2022-11-20T07:29:08;6.80;96.50
152;DHT22;68;48.792;9.164;2022-11-20T07:31:36;6.70;96.90
152;DHT22;68;48.792;9.164;2022-11-20T07:34:02;6.60;97.00
152;DHT22;68;48.792;9.164;2022-11-20T07:36:29;6.50;96.80
152;DHT22;68;48.792;9.164;2022-11-20T07:38:56;6.50;96.30
152;DHT22;68;48.792;9.164;2022-11-20T07:41:23;6.70;96.60
152;DHT22;68;48.792;9.164;2022-11-20T07:43:49;6.70;96.50
152;DHT22;68;48.792;9.164;2022-11-20T07:46:16;6.70;96.30
152;DHT22;68;48.792;9.164;2022-11-20T07:48:44;6.80;95.60
152;DHT22;68;48.792;9.164;2022-11-20T07:51:11;6.90;94.50
152;DHT22;68;48.792;9.164;2022-11-20T07:53:38;6.90;95.90
152;DHT22;68;48.792;9.164;2022-11-20T07:56:06;6.90;97.10
152;DHT22;68;48.792;9.164;2022-11-20T07:58:33;6.90;95.90
152;DHT22;68;48.792;9.164;2022-11-20T08:01:03;7.00;97.00
152;DHT22;68;48.792;9.164;2022-11-20T08:03:30;7.00;97.20
152;DHT22;68;48.792;9.164;2022-11-20T08:06:00;6.90;97.10
152;DHT22;68;48.792;9.164;2022-11-20T08:08:27;7.00;97.00
152;DHT22;68;48.792;9.164;2022-11-20T08:10:56;7.00;96.60
152;DHT22;68;48.792;9.164;2022-11-20T08:13:43;7.00;97.10
152;DHT22;68;48.792;9.164;2022-11-20T08:16:27;7.10;97.20
152;DHT22;68;48.792;9.164;2022-11-20T08:18:53;7.20;97.40
152;DHT22;68;48.792;9.164;2022-11-20T08:21:21;7.10;97.40
152;DHT22;68;48.792;9.164;2022-11-20T08:23:49;7.10;97.50
152;DHT22;68;48.792;9.164;2022-11-20T08:26:16;7.10;97.30
152;DHT22;68;48.792;9.164;2022-11-20T08:28:42;7.10;97.30
152;DHT22;68;48.792;9.164;2022-11-20T08:31:09;7.20;97.40
152;DHT22;68;48.792;9.164;2022-11-20T08:33:36;7.10;97.50
152;DHT22;68;48.792;9.164;2022-11-20T08:36:04;6.90;97.30
152;DHT22;68;48.792;9.164;2022-11-20T08:38:32;7.00;97.00
152;DHT22;68;48.792;9.164;2022-11-20T08:41:00;7.00;97.10
152;DHT22;68;48.792;9.164;2022-11-20T08:43:45;7.10;96.90
152;DHT22;68;48.792;9.164;2022-11-20T08:46:11;7.10;97.10
152;DHT22;68;48.792;9.164;2022-11-20T08:48:38;7.10;97.60
152;DHT22;68;48.792;9.164;2022-11-20T08:51:05;7.30;97.20
152;DHT22;68;48.792;9.164;2022-11-20T08:53:33;7.40;97.30
152;DHT22;68;48.792;9.164;2022-11-20T08:56:00;7.50;97.90
152;DHT22;68;48.792;9.164;2022-11-20T08:58:27;7.60;97.50
152;DHT22;68;48.792;9.164;2022-11-20T09:00:54;7.70;97.80
152;DHT22;68;48.792;9.164;2022-11-20T09:03:21;7.70;97.40
152;DHT22;68;48.792;9.164;2022-11-20T09:05:47;7.70;97.40
152;DHT22;68;48.792;9.164;2022-11-20T09:08:15;7.80;97.40
152;DHT22;68;48.792;9.164;2022-11-20T09:10:43;7.80;97.40
152;DHT22;68;48.792;9.164;2022-11-20T09:13:09;7.70;97.30
152;DHT22;68;48.792;9.164;2022-11-20T09:15:36;7.70;97.50
152;DHT22;68;48.792;9.164;2022-11-20T09:18:03;7.80;97.50
152;DHT22;68;48.792;9.164;2022-11-20T09:20:30;7.80;97.20
152;DHT22;68;48.792;9.164;2022-11-20T09:22:57;7.70;97.50
152;DHT22;68;48.792;9.164;2022-11-20T09:25:24;7.80;97.60
152;DHT22;68;48.792;9.164;2022-11-20T09:27:56;7.80;97.40
152;DHT22;68;48.792;9.164;2022-11-20T09:30:23;8.00;97.50
152;DHT22;68;48.792;9.164;2022-11-20T09:32:50;7.80;97.20
152;DHT22;68;48.792;9.164;2022-11-20T09:35:17;7.80;97.40
152;DHT22;68;48.792;9.164;2022-11-20T09:37:44;7.60;97.50
152;DHT22;68;48.792;9.164;2022-11-20T09:40:19;7.70;97.50
152;DHT22;68;48.792;9.164;2022-11-20T09:42:49;7.70;97.50
152;DHT22;68;48.792;9.164;2022-11-20T09:45:23;7.70;97.50
152;DHT22;68;48.792;9.164;2022-11-20T09:48:05;7.70;97.20
152;DHT22;68;48.792;9.164;2022-11-20T09:50:41;7.90;97.40
152;DHT22;68;48.792;9.164;2022-11-20T09:53:13;8.00;97.40
152;DHT22;68;48.792;9.164;2022-11-20T09:55:42;8.00;96.90
152;DHT22;68;48.792;9.164;2022-11-20T09:58:15;8.00;96.60
152;DHT22;68;48.792;9.164;2022-11-20T10:00:46;7.80;96.60
152;DHT22;68;48.792;9.164;2022-11-20T10:03:16;7.70;96.80
152;DHT22;68;48.792;9.164;2022-11-20T10:05:45;7.60;97.40
152;DHT22;68;48.792;9.164;2022-11-20T10:08:17;7.70;97.30
152;DHT22;68;48.792;9.164;2022-11-20T10:10:47;7.80;97.40
152;DHT22;68;48.792;9.164;2022-11-20T10:13:24;7.80;97.10
152;DHT22;68;48.792;9.164;2022-11-20T10:16:09;7.70;96.80
152;DHT22;68;48.792;9.164;2022-11-20T10:18:46;7.70;96.80
152;DHT22;68;48.792;9.164;2022-11-20T10:21:26;7.90;97.10
152;DHT22;68;48.792;9.164;2022-11-20T10:24:07;7.80;97.00
152;DHT22;68;48.792;9.164;2022-11-20T10:26:44;7.80;97.40
152;DHT22;68;48.792;9.164;2022-11-20T10:29:17;7.70;97.50
152;DHT22;68;48.792;9.164;2022-11-20T10:31:48;7.60;96.40
152;DHT22;68;48.792;9.164;2022-11-20T10:34:21;7.60;95.90
152;DHT22;68;48.792;9.164;2022-11-20T10:36:54;7.60;93.20
152;DHT22;68;48.792;9.164;2022-11-20T10:39:28;7.50;90.10
152;DHT22;68;48.792;9.164;2022-11-20T10:41:58;7.60;90.10
152;DHT22;68;48.792;9.164;2022-11-20T10:44:27;7.30;85.80
152;DHT22;68;48.792;9.164;2022-11-20T10:47:15;7.40;83.20
152;DHT22;68;48.792;9.164;2022-11-20T10:49:43;7.50;82.50
152;DHT22;68;48.792;9.164;2022-11-20T10:52:19;7.60;83.60
152;DHT22;68;48.792;9.164;2022-11-20T10:54:55;7.60;84.10
152;DHT22;68;48.792;9.164;2022-11-20T10:57:44;7.60;82.40
152;DHT22;68;48.792;9.164;2022-11-20T11:00:14;7.90;82.00
152;DHT22;68;48.792;9.164;2022-11-20T11:02:46;7.80;84.40
152;DHT22;68;48.792;9.164;2022-11-20T11:05:23;7.90;83.50
152;DHT22;68;48.792;9.164;2022-11-20T11:07:54;7.90;85.70
152;DHT22;68;48.792;9.164;2022-11-20T11:10:26;8.00;86.50
152;DHT22;68;48.792;9.164;2022-11-20T11:12:55;8.00;87.00
152;DHT22;68;48.792;9.164;2022-11-20T11:15:27;8.10;86.40
152;DHT22;68;48.792;9.164;2022-11-20T11:17:56;8.10;87.50
152;DHT22;68;48.792;9.164;2022-11-20T11:20:25;8.00;87.50
152;DHT22;68;48.792;9.164;2022-11-20T11:22:54;8.00;86.40
152;DHT22;68;48.792;9.164;2022-11-20T11:25:27;8.00;85.00
152;DHT22;68;48.792;9.164;2022-11-20T11:27:56;8.00;81.00
152;DHT22;68;48.792;9.164;2022-11-20T11:30:24;8.20;81.10
152;DHT22;68;48.792;9.164;2022-11-20T11:33:04;8.20;83.50
152;DHT22;68;48.792;9.164;2022-11-20T11:35:32;8.20;81.20
152;DHT22;68;48.792;9.164;2022-11-20T11:38:04;8.40;73.50
152;DHT22;68;48.792;9.164;2022-11-20T11:40:35;8.60;78.00
152;DHT22;68;48.792;9.164;2022-11-20T11:43:05;8.60;81.90
152;DHT22;68;48.792;9.164;2022-11-20T11:45:53;9.00;83.40
152;DHT22;68;48.792;9.164;2022-11-20T11:48:21;9.30;86.10
152;DHT22;68;48.792;9.164;2022-11-20T11:50:49;9.40;89.40
152;DHT22;68;48.792;9.164;2022-11-20T11:53:18;9.70;90.00
152;DHT22;68;48.792;9.164;2022-11-20T11:55:49;9.70;95.10
152;DHT22;68;48.792;9.164;2022-11-20T11:58:34;10.20;94.60
152;DHT22;68;48.792;9.164;2022-11-20T12:01:14;10.40;97.50
152;DHT22;68;48.792;9.164;2022-11-20T12:03:52;10.50;96.20
152;DHT22;68;48.792;9.164;2022-11-20T12:06:21;10.90;95.40
152;DHT22;68;48.792;9.164;2022-11-20T12:08:51;10.60;94.80
152;DHT22;68;48.792;9.164;2022-11-20T12:11:23;10.90;94.90
152;DHT22;68;48.792;9.164;2022-11-20T12:13:54;11.00;90.70
152;DHT22;68;48.792;9.164;2022-11-20T12:16:23;10.50;92.80
152;DHT22;68;48.792;9.164;2022-11-20T12:18:52;10.20;91.70
152;DHT22;68;48.792;9.164;2022-11-20T12:21:24;9.90;93.40
152;DHT22;68;48.792;9.164;2022-11-20T12:24:10;9.30;95.90
152;DHT22;68;48.792;9.164;2022-11-20T12:26:54;9.30;96.30
152;DHT22;68;48.792;9.164;2022-11-20T12:29:32;9.20;96.30
152;DHT22;68;48.792;9.164;2022-11-20T12:32:34;9.20;96.50
152;DHT22;68;48.792;9.164;2022-11-20T12:35:17;9.10;94.60
152;DHT22;68;48.792;9.164;2022-11-20T12:37:54;9.10;95.70
152;DHT22;68;48.792;9.164;2022-11-20T12:40:31;9.00;93.40
152;DHT22;68;48.792;9.164;2022-11-20T12:43:11;9.10;92.80
152;DHT22;68;48.792;9.164;2022-11-20T12:46:17;9.10;92.20
152;DHT22;68;48.792;9.164;2022-11-20T12:49:01;9.00;93.90
152;DHT22;68;48.792;9.164;2022-11-20T12:51:51;9.00;94.40
152;DHT22;68;48.792;9.164;2022-11-20T12:54:40;9.10;93.70
152;DHT22;68;48.792;9.164;2022-11-20T12:57:14;9.10;88.70
152;DHT22;68;48.792;9.164;2022-11-20T12:59:57;9.10;89.60
152;DHT22;68;48.792;9.164;2022-11-20T13:02:31;9.00;89.90
152;DHT22;68;48.792;9.164;2022-11-20T13:05:15;9.10;90.50
152;DHT22;68;48.792;9.164;2022-11-20T13:07:46;9.00;91.20
152;DHT22;68;48.792;9.164;2022-11-20T13:10:22;9.20;88.10
152;DHT22;68;48.792;9.164;2022-11-20T13:12:55;9.10;92.00
152;DHT22;68;48.792;9.164;2022-11-20T13:15:41;9.00;92.00
152;DHT22;68;48.792;9.164;2022-11-20T13:18:11;8.80;89.60
152;DHT22;68;48.792;9.164;2022-11-20T13:20:44;8.80;88.30
152;DHT22;68;48.792;9.164;2022-11-20T13:23:23;8.80;90.10
152;DHT22;68;48.792;9.164;2022-11-20T13:25:50;8.70;89.40
152;DHT22;68;48.792;9.164;2022-11-20T13:28:29;8.70;88.00
152;DHT22;68;48.792;9.164;2022-11-20T13:30:57;8.60;89.70
152;DHT22;68;48.792;9.164;2022-11-20T13:33:28;8.80;90.10
152;DHT22;68;48.792;9.164;2022-11-20T13:35:58;8.70;86.10
152;DHT22;68;48.792;9.164;2022-11-20T13:38:26;8.60;85.00
152;DHT22;68;48.792;9.164;2022-11-20T13:40:54;8.70;86.50
152;DHT22;68;48.792;9.164;2022-11-20T13:43:26;8.70;85.90
152;DHT22;68;48.792;9.164;2022-11-20T13:45:56;8.90;86.00
152;DHT22;68;48.792;9.164;2022-11-20T13:48:26;8.90;88.70
152;DHT22;68;48.792;9.164;2022-11-20T13:51:06;8.60;86.50
152;DHT22;68;48.792;9.164;2022-11-20T13:53:53;8.60;86.40
152;DHT22;68;48.792;9.164;2022-11-20T13:56:27;8.50;86.50
152;DHT22;68;48.792;9.164;2022-11-20T13:59:05;8.40;86.50
152;DHT22;68;48.792;9.164;2022-11-20T14:01:37;8.20;86.10
152;DHT22;68;48.792;9.164;2022-11-20T14:04:07;8.20;87.20
152;DHT22;68;48.792;9.164;2022-11-20T14:06:40;8.30;89.50
152;DHT22;68;48.792;9.164;2022-11-20T14:09:13;8.30;90.90
152;DHT22;68;48.792;9.164;2022-11-20T14:11:50;8.20;92.20
152;DHT22;68;48.792;9.164;2022-11-20T14:14:18;8.10;91.60
152;DHT22;68;48.792;9.164;2022-11-20T14:16:47;8.00;92.50
152;DHT22;68;48.792;9.164;2022-11-20T14:19:25;8.10;92.80
152;DHT22;68;48.792;9.164;2022-11-20T14:21:54;8.00;92.80
152;DHT22;68;48.792;9.164;2022-11-20T14:24:24;8.00;93.40
152;DHT22;68;48.792;9.164;2022-11-20T14:26:52;8.10;93.40
152;DHT22;68;48.792;9.164;2022-11-20T14:29:20;8.10;93.40
152;DHT22;68;48.792;9.164;2022-11-20T14:31:51;8.20;93.70
152;DHT22;68;48.792;9.164;2022-11-20T14:34:20;8.20;92.90
152;DHT22;68;48.792;9.164;2022-11-20T14:36:49;8.10;93.40
152;DHT22;68;48.792;9.164;2022-11-20T14:39:21;8.10;94.60
152;DHT22;68;48.792;9.164;2022-11-20T14:41:50;8.10;95.30
152;DHT22;68;48.792;9.164;2022-11-20T14:44:18;8.20;95.00
152;DHT22;68;48.792;9.164;2022-11-20T14:46:46;8.40;94.10
152;DHT22;68;48.792;9.164;2022-11-20T14:49:13;8.60;93.40
152;DHT22;68;48.792;9.164;2022-11-20T14:51:40;8.60;94.90
152;DHT22;68;48.792;9.164;2022-11-20T14:54:11;8.50;93.30
152;DHT22;68;48.792;9.164;2022-11-20T14:56:40;8.40;93.70
152;DHT22;68;48.792;9.164;2022-11-20T14:59:08;8.10;93.20
152;DHT22;68;48.792;9.164;2022-11-20T15:01:35;8.00;92.00
152;DHT22;68;48.792;9.164;2022-11-20T15:04:06;8.00;91.90
152;DHT22;68;48.792;9.164;2022-11-20T15:06:34;8.00;92.30
152;DHT22;68;48.792;9.164;2022-11-20T15:09:03;7.90;93.60
152;DHT22;68;48.792;9.164;2022-11-20T15:11:31;8.00;94.00
152;DHT22;68;48.792;9.164;2022-11-20T15:14:02;8.20;93.10
152;DHT22;68;48.792;9.164;2022-11-20T15:16:30;8.30;93.20
152;DHT22;68;48.792;9.164;2022-11-20T15:18:57;8.20;93.60
152;DHT22;68;48.792;9.164;2022-11-20T15:21:24;8.20;94.80
152;DHT22;68;48.792;9.164;2022-11-20T15:23:51;8.30;94.90
152;DHT22;68;48.792;9.164;2022-11-20T15:26:23;8.20;94.40
152;DHT22;68;48.792;9.164;2022-11-20T15:28:51;8.20;93.70
152;DHT22;68;48.792;9.164;2022-11-20T15:31:22;8.00;93.70
152;DHT22;68;48.792;9.164;2022-11-20T15:33:49;7.90;94.40
152;DHT22;68;48.792;9.164;2022-11-20T15:36:16;7.80;95.80
152;DHT22;68;48.792;9.164;2022-11-20T15:38:43;7.80;96.00
152;DHT22;68;48.792;9.164;2022-11-20T15:41:09;7.80;95.80
152;DHT22;68;48.792;9.164;2022-11-20T15:43:36;7.70;96.10
152;DHT22;68;48.792;9.164;2022-11-20T15:46:06;7.70;96.30
152;DHT22;68;48.792;9.164;2022-11-20T15:48:38;7.80;96.50
152;DHT22;68;48.792;9.164;2022-11-20T15:51:13;7.80;96.20
152;DHT22;68;48.792;9.164;2022-11-20T15:53:41;7.40;96.60
152;DHT22;68;48.792;9.164;2022-11-20T15:56:11;7.40;96.90
152;DHT22;68;48.792;9.164;2022-11-20T15:58:39;7.50;96.90
152;DHT22;68;48.792;9.164;2022-11-20T16:01:10;7.60;96.80
152;DHT22;68;48.792;9.164;2022-11-20T16:03:38;7.30;96.70
152;DHT22;68;48.792;9.164;2022-11-20T16:06:05;7.20;97.20
152;DHT22;68;48.792;9.164;2022-11-20T16:08:32;7.30;97.10
152;DHT22;68;48.792;9.164;2022-11-20T16:10:59;7.30;97.20
152;DHT22;68;48.792;9.164;2022-11-20T16:13:26;7.20;97.30
152;DHT22;68;48.792;9.164;2022-11-20T16:16:19;7.10;97.30
152;DHT22;68;48.792;9.164;2022-11-20T16:18:47;6.80;97.30
152;DHT22;68;48.792;9.164;2022-11-20T16:21:14;6.60;97.40
152;DHT22;68;48.792;9.164;2022-11-20T16:23:42;6.60;96.00
152;DHT22;68;48.792;9.164;2022-11-20T16:26:09;6.70;96.00
152;DHT22;68;48.792;9.164;2022-11-20T16:28:36;6.90;95.50
152;DHT22;68;48.792;9.164;2022-11-20T16:31:08;6.90;96.10
152;DHT22;68;48.792;9.164;2022-11-20T16:33:35;7.00;96.60
152;DHT22;68;48.792;9.164;2022-11-20T16:36:08;7.00;96.60
152;DHT22;68;48.792;9.164;2022-11-20T16:38:35;6.90;96.50
152;DHT22;68;48.792;9.164;2022-11-20T16:41:02;7.10;96.40
152;DHT22;68;48.792;9.164;2022-11-20T16:43:29;7.20;98.10
152;DHT22;68;48.792;9.164;2022-11-20T16:45:56;7.20;97.20
152;DHT22;68;48.792;9.164;2022-11-20T16:48:22;7.30;97.30
152;DHT22;68;48.792;9.164;2022-11-20T16:50:50;7.60;97.30
152;DHT22;68;48.792;9.164;2022-11-20T16:53:20;7.60;97.10
152;DHT22;68;48.792;9.164;2022-11-20T16:55:48;7.70;97.00
152;DHT22;68;48.792;9.164;2022-11-20T16:58:14;7.80;97.00
152;DHT22;68;48.792;9.164;2022-11-20T17:00:41;7.80;96.80
152;DHT22;68;48.792;9.164;2022-11-20T17:03:08;7.80;96.90
152;DHT22;68;48.792;9.164;2022-11-20T17:05:35;7.70;96.90
152;DHT22;68;48.792;9.164;2022-11-20T17:08:02;7.70;97.20
152;DHT22;68;48.792;9.164;2022-11-20T17:10:30;7.70;97.10
152;DHT22;68;48.792;9.164;2022-11-20T17:12:57;7.60;96.50
152;DHT22;68;48.792;9.164;2022-11-20T17:15:24;7.50;97.10
152;DHT22;68;48.792;9.164;2022-11-20T17:17:50;7.50;97.20
152;DHT22;68;48.792;9.164;2022-11-20T17:20:17;7.60;97.20
152;DHT22;68;48.792;9.164;2022-11-20T17:22:44;7.60;97.00
152;DHT22;68;48.792;9.164;2022-11-20T17:25:11;7.60;97.00